ADDS METAR Data INFO
IDs: Format: Raw Decoded Include TAF

Data at: 1416 UTC 12 Dec 2017

KMHR 121345Z 00000KT 10SM SKC 02/01 A3033
KMHR 121245Z 00000KT 10SM SKC M01/M01 A3033
KMHR 121145Z 00000KT 10SM SKC 00/M01 A3034
KMHR 121055Z 00000KT 10SM SKC 01/00 A3034
KMHR 120655Z 04005KT 10SM BKN038 OVC045 04/02 A3034
KMHR 120550Z 00000KT 10SM SCT030 BKN040 03/01 A3033
KMHR 120455Z 13005KT 10SM BKN030 BKN040 04/02 A3032
KMHR 120355Z 00000KT 10SM FEW030 BKN200 05/02 A3031
KMHR 120245Z 00000KT 10SM BKN200 09/03 A3029
KMHR 120150Z 00000KT 10SM BKN200 10/03 A3029
KMHR 120045Z 00000KT 10SM BKN200 14/03 A3028
KMHR 112345Z 00000KT 10SM BKN200 16/03 A3028
KMHR 112245Z 00000KT 10SM BKN250 16/02 A3027
KMHR 112145Z 28004KT 10SM BKN250 16/03 A3029
KMHR 112045Z 33004KT 10SM BKN250 15/04 A3031
KMHR 111945Z 00000KT 10SM BKN250 13/05 A3033
KMHR 111845Z 28003KT 10SM BKN250 11/05 A3035
KMHR 111745Z 00000KT 10SM SKC 09/06 A3035
KMHR 111645Z 00000KT 10SM SKC 04/03 A3034
KMHR 111445Z 00000KT 10SM SKC 01/00 A3031
KMHR 111350Z 00000KT 10SM SKC 00/00 A3031
KMHR 111250Z 00000KT 10SM MIFG SKC 02/01 A3030
KMHR 110445Z 00000KT 10SM SKC 04/03 A3024
KMHR 110345Z 00000KT 10SM SKC 05/03 A3023
KMHR 110255Z 00000KT 10SM SKC 07/03 A3022